sensor_id;sensor_type;location;lat;lon;timestamp;pressure;altitude;pressure_sealevel;temperature;humidity
73151;BME280;61354;50.758;6.106;2022-09-29T00:01:02;97676.28;;;6.37;94.59
73151;BME280;61354;50.758;6.106;2022-09-29T00:03:28;97672.31;;;6.35;94.41
73151;BME280;61354;50.758;6.106;2022-09-29T00:05:55;97675.41;;;6.33;94.70
73151;BME280;61354;50.758;6.106;2022-09-29T00:08:23;97677.00;;;6.34;94.34
73151;BME280;61354;50.758;6.106;2022-09-29T00:10:49;97667.59;;;6.35;94.03
73151;BME280;61354;50.758;6.106;2022-09-29T00:13:16;97673.03;;;6.32;94.28
73151;BME280;61354;50.758;6.106;2022-09-29T00:15:42;97673.03;;;6.32;94.27
73151;BME280;61354;50.758;6.106;2022-09-29T00:18:07;97665.19;;;6.34;94.68
73151;BME280;61354;50.758;6.106;2022-09-29T00:20:34;97658.94;;;6.37;94.44
73151;BME280;61354;50.758;6.106;2022-09-29T00:23:00;97664.47;;;6.37;94.18
73151;BME280;61354;50.758;6.106;2022-09-29T00:25:26;97664.03;;;6.35;94.12
73151;BME280;61354;50.758;6.106;2022-09-29T00:27:51;97663.19;;;6.31;94.49
73151;BME280;61354;50.758;6.106;2022-09-29T00:30:17;97665.19;;;6.34;94.32
73151;BME280;61354;50.758;6.106;2022-09-29T00:32:42;97669.13;;;6.33;94.80
73151;BME280;61354;50.758;6.106;2022-09-29T00:35:09;97660.44;;;6.31;94.33
73151;BME280;61354;50.758;6.106;2022-09-29T00:37:34;97659.66;;;6.34;94.56
73151;BME280;61354;50.758;6.106;2022-09-29T00:40:00;97662.88;;;6.36;94.37
73151;BME280;61354;50.758;6.106;2022-09-29T00:42:26;97656.97;;;6.37;94.00
73151;BME280;61354;50.758;6.106;2022-09-29T00:45:21;97656.56;;;6.35;94.32
73151;BME280;61354;50.758;6.106;2022-09-29T00:47:52;97654.16;;;6.34;94.50
73151;BME280;61354;50.758;6.106;2022-09-29T00:50:24;97657.38;;;6.36;94.55
73151;BME280;61354;50.758;6.106;2022-09-29T00:52:55;97665.97;;;6.34;94.72
73151;BME280;61354;50.758;6.106;2022-09-29T00:55:24;97662.00;;;6.32;94.63
73151;BME280;61354;50.758;6.106;2022-09-29T00:58:02;97665.94;;;6.31;94.36
73151;BME280;61354;50.758;6.106;2022-09-29T01:00:29;97669.91;;;6.33;94.48
73151;BME280;61354;50.758;6.106;2022-09-29T01:03:01;97660.84;;;6.33;94.30
73151;BME280;61354;50.758;6.106;2022-09-29T01:05:32;97660.44;;;6.31;94.19
73151;BME280;61354;50.758;6.106;2022-09-29T01:08:10;97667.47;;;6.28;94.41
73151;BME280;61354;50.758;6.106;2022-09-29T01:10:38;97666.66;;;6.28;94.72
73151;BME280;61354;50.758;6.106;2022-09-29T01:13:04;97662.38;;;6.30;94.33
73151;BME280;61354;50.758;6.106;2022-09-29T01:15:29;97665.81;;;6.23;94.39
73151;BME280;61354;50.758;6.106;2022-09-29T01:17:55;97671.31;;;6.23;94.83
73151;BME280;61354;50.758;6.106;2022-09-29T01:20:22;97663.03;;;6.23;94.40
73151;BME280;61354;50.758;6.106;2022-09-29T01:34:10;97661.88;;;6.25;94.81
73151;BME280;61354;50.758;6.106;2022-09-29T01:36:53;97676.03;;;6.23;94.74
73151;BME280;61354;50.758;6.106;2022-09-29T01:39:33;97676.38;;;6.21;94.91
73151;BME280;61354;50.758;6.106;2022-09-29T01:44:31;97666.53;;;6.20;94.68
73151;BME280;61354;50.758;6.106;2022-09-29T01:47:03;97670.44;;;6.19;94.38
73151;BME280;61354;50.758;6.106;2022-09-29T01:49:32;97677.53;;;6.20;94.44
73151;BME280;61354;50.758;6.106;2022-09-29T01:52:12;97669.28;;;6.20;94.04
73151;BME280;61354;50.758;6.106;2022-09-29T01:54:46;97677.53;;;6.20;94.31
73151;BME280;61354;50.758;6.106;2022-09-29T01:59:49;97678.00;;;6.22;94.43
73151;BME280;61354;50.758;6.106;2022-09-29T02:02:25;97672.81;;;6.21;94.75
73151;BME280;61354;50.758;6.106;2022-09-29T02:04:54;97668.06;;;6.18;94.21
73151;BME280;61354;50.758;6.106;2022-09-29T02:07:26;97667.69;;;6.19;94.44
73151;BME280;61354;50.758;6.106;2022-09-29T02:10:02;97664.16;;;6.19;94.55
73151;BME280;61354;50.758;6.106;2022-09-29T02:12:31;97676.75;;;6.20;94.65
73151;BME280;61354;50.758;6.106;2022-09-29T02:15:00;97673.63;;;6.21;94.22
73151;BME280;61354;50.758;6.106;2022-09-29T02:17:31;97670.88;;;6.21;94.57
73151;BME280;61354;50.758;6.106;2022-09-29T02:19:57;97673.69;;;6.25;93.97
73151;BME280;61354;50.758;6.106;2022-09-29T02:22:23;97675.59;;;6.21;93.83
73151;BME280;61354;50.758;6.106;2022-09-29T02:24:51;97674.00;;;6.20;93.95
73151;BME280;61354;50.758;6.106;2022-09-29T02:27:20;97678.25;;;6.17;93.87
73151;BME280;61354;50.758;6.106;2022-09-29T02:29:46;97672.75;;;6.17;93.70
73151;BME280;61354;50.758;6.106;2022-09-29T02:32:12;97673.50;;;6.14;93.93
73151;BME280;61354;50.758;6.106;2022-09-29T02:34:40;97664.78;;;6.12;94.23
73151;BME280;61354;50.758;6.106;2022-09-29T02:45:41;97667.69;;;6.00;94.44
73151;BME280;61354;50.758;6.106;2022-09-29T02:59:14;97665.31;;;5.98;94.17
73151;BME280;61354;50.758;6.106;2022-09-29T03:01:50;97664.53;;;5.98;94.41
73151;BME280;61354;50.758;6.106;2022-09-29T03:04:17;97662.03;;;5.93;94.56
73151;BME280;61354;50.758;6.106;2022-09-29T03:06:42;97659.56;;;5.88;94.44
73151;BME280;61354;50.758;6.106;2022-09-29T03:09:08;97665.50;;;5.90;94.79
73151;BME280;61354;50.758;6.106;2022-09-29T03:11:33;97667.09;;;5.91;94.48
73151;BME280;61354;50.758;6.106;2022-09-29T03:13:59;97664.28;;;5.87;94.71
73151;BME280;61354;50.758;6.106;2022-09-29T03:16:24;97665.84;;;5.88;94.79
73151;BME280;61354;50.758;6.106;2022-09-29T03:18:50;97660.34;;;5.88;94.68
73151;BME280;61354;50.758;6.106;2022-09-29T03:21:15;97658.75;;;5.87;94.52
73151;BME280;61354;50.758;6.106;2022-09-29T03:23:41;97657.91;;;5.83;94.89
73151;BME280;61354;50.758;6.106;2022-09-29T03:26:06;97657.25;;;5.90;94.51
73151;BME280;61354;50.758;6.106;2022-09-29T03:28:32;97659.94;;;5.86;94.76
73151;BME280;61354;50.758;6.106;2022-09-29T03:31:07;97658.03;;;5.90;94.71
73151;BME280;61354;50.758;6.106;2022-09-29T03:33:34;97647.81;;;5.91;94.31
73151;BME280;61354;50.758;6.106;2022-09-29T03:36:01;97657.25;;;5.90;94.00
73151;BME280;61354;50.758;6.106;2022-09-29T03:38:28;97653.63;;;5.86;94.92
73151;BME280;61354;50.758;6.106;2022-09-29T03:40:53;97653.63;;;5.86;94.55
73151;BME280;61354;50.758;6.106;2022-09-29T03:43:18;97657.97;;;5.87;94.48
73151;BME280;61354;50.758;6.106;2022-09-29T03:45:49;97663.47;;;5.87;94.58
73151;BME280;61354;50.758;6.106;2022-09-29T03:48:14;97653.63;;;5.86;94.85
73151;BME280;61354;50.758;6.106;2022-09-29T03:50:40;97667.03;;;5.87;94.28
73151;BME280;61354;50.758;6.106;2022-09-29T03:53:06;97666.59;;;5.85;94.71
73151;BME280;61354;50.758;6.106;2022-09-29T03:55:31;97664.94;;;5.81;94.62
73151;BME280;61354;50.758;6.106;2022-09-29T03:57:56;97668.84;;;5.80;94.79
73151;BME280;61354;50.758;6.106;2022-09-29T04:00:22;97668.13;;;5.83;94.83
73151;BME280;61354;50.758;6.106;2022-09-29T04:02:47;97672.03;;;5.82;94.80
73151;BME280;61354;50.758;6.106;2022-09-29T04:05:13;97668.03;;;5.79;94.10
73151;BME280;61354;50.758;6.106;2022-09-29T04:07:38;97678.25;;;5.79;94.34
73151;BME280;61354;50.758;6.106;2022-09-29T04:10:04;97679.13;;;5.83;94.87
73151;BME280;61354;50.758;6.106;2022-09-29T04:12:29;97675.09;;;5.77;94.61
73151;BME280;61354;50.758;6.106;2022-09-29T04:14:55;97685.88;;;5.66;94.92
73151;BME280;61354;50.758;6.106;2022-09-29T04:17:21;97680.38;;;5.66;94.83
73151;BME280;61354;50.758;6.106;2022-09-29T04:19:46;97682.44;;;5.53;94.60
73151;BME280;61354;50.758;6.106;2022-09-29T04:22:14;97690.25;;;5.51;95.18
73151;BME280;61354;50.758;6.106;2022-09-29T04:24:42;97688.78;;;5.38;94.21
73151;BME280;61354;50.758;6.106;2022-09-29T04:27:08;97690.50;;;5.27;95.22
73151;BME280;61354;50.758;6.106;2022-09-29T04:29:33;97695.88;;;5.39;95.01
73151;BME280;61354;50.758;6.106;2022-09-29T04:31:59;97694.00;;;5.43;94.83
73151;BME280;61354;50.758;6.106;2022-09-29T04:34:24;97692.41;;;5.42;94.34
73151;BME280;61354;50.758;6.106;2022-09-29T04:36:50;97696.25;;;5.37;94.52
73151;BME280;61354;50.758;6.106;2022-09-29T04:39:15;97692.25;;;5.35;94.34
73151;BME280;61354;50.758;6.106;2022-09-29T04:41:40;97689.31;;;5.43;94.02
73151;BME280;61354;50.758;6.106;2022-09-29T04:44:06;97699.59;;;5.46;94.65
73151;BME280;61354;50.758;6.106;2022-09-29T04:46:31;97693.59;;;5.41;94.96
73151;BME280;61354;50.758;6.106;2022-09-29T04:48:57;97702.56;;;5.38;95.12
73151;BME280;61354;50.758;6.106;2022-09-29T04:51:22;97695.53;;;5.40;95.41
73151;BME280;61354;50.758;6.106;2022-09-29T04:53:48;97709.31;;;5.40;95.37
73151;BME280;61354;50.758;6.106;2022-09-29T04:56:13;97710.78;;;5.18;95.44
73151;BME280;61354;50.758;6.106;2022-09-29T04:58:39;97703.22;;;5.15;94.52
73151;BME280;61354;50.758;6.106;2022-09-29T05:01:09;97715.13;;;5.04;95.29
73151;BME280;61354;50.758;6.106;2022-09-29T05:03:36;97700.84;;;4.98;94.75
73151;BME280;61354;50.758;6.106;2022-09-29T05:06:02;97712.91;;;4.78;95.69
73151;BME280;61354;50.758;6.106;2022-09-29T05:08:28;97711.31;;;4.77;96.13
73151;BME280;61354;50.758;6.106;2022-09-29T05:10:53;97715.84;;;4.69;95.95
73151;BME280;61354;50.758;6.106;2022-09-29T05:13:18;97715.69;;;4.78;96.47
73151;BME280;61354;50.758;6.106;2022-09-29T05:15:44;97719.22;;;4.78;95.11
73151;BME280;61354;50.758;6.106;2022-09-29T05:18:09;97728.69;;;4.81;94.84
73151;BME280;61354;50.758;6.106;2022-09-29T05:20:35;97721.16;;;4.93;94.74
73151;BME280;61354;50.758;6.106;2022-09-29T05:23:00;97722.50;;;4.84;94.10
73151;BME280;61354;50.758;6.106;2022-09-29T05:25:26;97730.75;;;4.84;94.65
73151;BME280;61354;50.758;6.106;2022-09-29T05:27:52;97726.91;;;4.72;95.29
73151;BME280;61354;50.758;6.106;2022-09-29T05:30:17;97729.94;;;4.67;95.85
73151;BME280;61354;50.758;6.106;2022-09-29T05:32:43;97724.25;;;4.60;96.17
73151;BME280;61354;50.758;6.106;2022-09-29T05:35:09;97729.31;;;4.58;96.50
73151;BME280;61354;50.758;6.106;2022-09-29T05:37:34;97733.47;;;4.68;96.29
73151;BME280;61354;50.758;6.106;2022-09-29T05:40:00;97738.47;;;4.94;95.22
73151;BME280;61354;50.758;6.106;2022-09-29T05:42:25;97738.63;;;5.01;93.90
73151;BME280;61354;50.758;6.106;2022-09-29T05:44:52;97741.13;;;5.06;93.52
73151;BME280;61354;50.758;6.106;2022-09-29T05:47:17;97741.75;;;4.99;94.01
73151;BME280;61354;50.758;6.106;2022-09-29T05:49:43;97748.03;;;5.00;93.82
73151;BME280;61354;50.758;6.106;2022-09-29T05:52:09;97742.53;;;5.00;94.39
73151;BME280;61354;50.758;6.106;2022-09-29T05:54:35;97748.22;;;4.91;94.93
73151;BME280;61354;50.758;6.106;2022-09-29T05:57:00;97747.94;;;4.96;94.76
73151;BME280;61354;50.758;6.106;2022-09-29T05:59:26;97748.03;;;5.00;94.93
73151;BME280;61354;50.758;6.106;2022-09-29T06:01:51;97756.75;;;5.02;95.21
73151;BME280;61354;50.758;6.106;2022-09-29T06:04:17;97757.56;;;5.03;95.74
73151;BME280;61354;50.758;6.106;2022-09-29T06:06:42;97757.53;;;4.87;96.67
73151;BME280;61354;50.758;6.106;2022-09-29T06:09:08;97761.28;;;4.94;96.73
73151;BME280;61354;50.758;6.106;2022-09-29T06:11:33;97773.50;;;5.13;95.84
73151;BME280;61354;50.758;6.106;2022-09-29T06:14:00;97761.19;;;5.22;95.45
73151;BME280;61354;50.758;6.106;2022-09-29T06:16:28;97764.38;;;5.24;95.41
73151;BME280;61354;50.758;6.106;2022-09-29T06:18:54;97770.75;;;5.29;95.50
73151;BME280;61354;50.758;6.106;2022-09-29T06:21:25;97773.22;;;5.34;95.83
73151;BME280;61354;50.758;6.106;2022-09-29T06:23:53;97775.72;;;5.39;95.72
73151;BME280;61354;50.758;6.106;2022-09-29T06:26:20;97766.31;;;5.40;95.96
73151;BME280;61354;50.758;6.106;2022-09-29T06:28:46;97768.97;;;5.52;96.05
73151;BME280;61354;50.758;6.106;2022-09-29T06:31:17;97770.56;;;5.53;95.42
73151;BME280;61354;50.758;6.106;2022-09-29T06:33:46;97771.59;;;5.64;96.13
73151;BME280;61354;50.758;6.106;2022-09-29T06:36:15;97772.63;;;5.76;95.21
73151;BME280;61354;50.758;6.106;2022-09-29T06:39:00;97784.53;;;5.80;95.68
73151;BME280;61354;50.758;6.106;2022-09-29T06:41:25;97778.78;;;5.69;96.62
73151;BME280;61354;50.758;6.106;2022-09-29T06:43:52;97777.78;;;5.77;96.80
73151;BME280;61354;50.758;6.106;2022-09-29T06:46:18;97778.13;;;5.76;96.81
73151;BME280;61354;50.758;6.106;2022-09-29T06:48:44;97787.72;;;5.82;96.95
73151;BME280;61354;50.758;6.106;2022-09-29T06:51:10;97779.97;;;5.87;96.43
73151;BME280;61354;50.758;6.106;2022-09-29T06:53:35;97788.50;;;5.98;96.19
73151;BME280;61354;50.758;6.106;2022-09-29T06:56:01;97790.25;;;6.06;95.91
73151;BME280;61354;50.758;6.106;2022-09-29T06:58:27;97798.75;;;6.17;96.15
73151;BME280;61354;50.758;6.106;2022-09-29T07:00:53;97797.22;;;6.19;95.12
73151;BME280;61354;50.758;6.106;2022-09-29T07:03:19;97802.91;;;6.27;95.13
73151;BME280;61354;50.758;6.106;2022-09-29T07:05:45;97803.03;;;6.34;94.49
73151;BME280;61354;50.758;6.106;2022-09-29T07:08:10;97800.81;;;6.39;94.46
73151;BME280;61354;50.758;6.106;2022-09-29T07:10:36;97803.25;;;6.44;95.12
73151;BME280;61354;50.758;6.106;2022-09-29T07:13:01;97798.16;;;6.46;96.50
73151;BME280;61354;50.758;6.106;2022-09-29T07:15:27;97804.22;;;6.52;95.89
73151;BME280;61354;50.758;6.106;2022-09-29T07:17:59;97790.59;;;6.63;95.47
73151;BME280;61354;50.758;6.106;2022-09-29T07:20:25;97801.41;;;6.71;95.51
73151;BME280;61354;50.758;6.106;2022-09-29T07:22:51;97804.63;;;6.73;95.27
73151;BME280;61354;50.758;6.106;2022-09-29T07:25:17;97801.56;;;6.79;95.34
73151;BME280;61354;50.758;6.106;2022-09-29T07:27:42;97804.44;;;6.86;95.49
73151;BME280;61354;50.758;6.106;2022-09-29T07:30:09;97803.34;;;6.90;95.90
73151;BME280;61354;50.758;6.106;2022-09-29T07:32:35;97809.34;;;6.96;95.75
73151;BME280;61354;50.758;6.106;2022-09-29T07:35:00;97808.75;;;7.06;95.26
73151;BME280;61354;50.758;6.106;2022-09-29T07:37:26;97803.72;;;7.12;95.10
73151;BME280;61354;50.758;6.106;2022-09-29T07:39:52;97810.19;;;7.19;94.99
73151;BME280;61354;50.758;6.106;2022-09-29T07:42:19;97804.03;;;7.30;94.97
73151;BME280;61354;50.758;6.106;2022-09-29T07:44:46;97808.81;;;7.33;95.47
73151;BME280;61354;50.758;6.106;2022-09-29T07:47:11;97801.44;;;7.40;95.08
73151;BME280;61354;50.758;6.106;2022-09-29T07:49:38;97811.38;;;7.45;94.28
73151;BME280;61354;50.758;6.106;2022-09-29T07:52:04;97811.06;;;7.50;94.27
73151;BME280;61354;50.758;6.106;2022-09-29T07:54:29;97821.06;;;7.58;94.01
73151;BME280;61354;50.758;6.106;2022-09-29T07:56:55;97821.97;;;7.66;93.89
73151;BME280;61354;50.758;6.106;2022-09-29T07:59:21;97822.91;;;7.73;93.50
73151;BME280;61354;50.758;6.106;2022-09-29T08:01:46;97823.38;;;7.79;93.98
73151;BME280;61354;50.758;6.106;2022-09-29T08:04:12;97827.84;;;7.87;93.25
73151;BME280;61354;50.758;6.106;2022-09-29T08:06:37;97829.91;;;7.94;92.87
73151;BME280;61354;50.758;6.106;2022-09-29T08:09:04;97833.94;;;8.00;93.00
73151;BME280;61354;50.758;6.106;2022-09-29T08:11:32;97836.06;;;8.10;91.84
73151;BME280;61354;50.758;6.106;2022-09-29T08:13:58;97842.84;;;8.13;89.36
73151;BME280;61354;50.758;6.106;2022-09-29T08:16:24;97844.84;;;8.16;88.05
73151;BME280;61354;50.758;6.106;2022-09-29T08:18:50;97837.78;;;8.18;88.14
73151;BME280;61354;50.758;6.106;2022-09-29T08:21:15;97844.16;;;8.22;88.65
73151;BME280;61354;50.758;6.106;2022-09-29T08:23:42;97840.25;;;8.27;88.87
73151;BME280;61354;50.758;6.106;2022-09-29T08:26:13;97840.78;;;8.36;87.43
73151;BME280;61354;50.758;6.106;2022-09-29T08:28:40;97835.75;;;8.42;89.22
73151;BME280;61354;50.758;6.106;2022-09-29T08:31:07;97840.97;;;8.47;89.99
73151;BME280;61354;50.758;6.106;2022-09-29T08:33:33;97841.03;;;8.54;89.27
73151;BME280;61354;50.758;6.106;2022-09-29T08:35:59;97844.63;;;8.58;89.37
73151;BME280;61354;50.758;6.106;2022-09-29T08:38:26;97845.47;;;8.62;89.77
73151;BME280;61354;50.758;6.106;2022-09-29T08:40:53;97853.13;;;8.73;85.50
73151;BME280;61354;50.758;6.106;2022-09-29T08:43:24;97850.34;;;8.73;87.17
73151;BME280;61354;50.758;6.106;2022-09-29T08:48:43;97857.19;;;8.82;87.64
73151;BME280;61354;50.758;6.106;2022-09-29T08:53:47;97856.56;;;8.96;88.19
73151;BME280;61354;50.758;6.106;2022-09-29T08:56:14;97868.47;;;9.00;88.39
73151;BME280;61354;50.758;6.106;2022-09-29T08:58:41;97869.34;;;9.08;87.94
73151;BME280;61354;50.758;6.106;2022-09-29T09:07:13;97866.31;;;9.20;86.31
73151;BME280;61354;50.758;6.106;2022-09-29T09:18:04;97872.75;;;9.31;84.04
73151;BME280;61354;50.758;6.106;2022-09-29T09:20:44;97866.81;;;9.33;82.70
73151;BME280;61354;50.758;6.106;2022-09-29T09:23:19;97861.34;;;9.40;82.70
73151;BME280;61354;50.758;6.106;2022-09-29T09:25:50;97874.47;;;9.43;82.08
73151;BME280;61354;50.758;6.106;2022-09-29T09:28:21;97866.63;;;9.52;81.40
73151;BME280;61354;50.758;6.106;2022-09-29T09:31:00;97876.19;;;9.58;79.40
73151;BME280;61354;50.758;6.106;2022-09-29T09:33:40;97866.34;;;9.64;77.97
73151;BME280;61354;50.758;6.106;2022-09-29T09:36:22;97870.22;;;9.56;78.66
73151;BME280;61354;50.758;6.106;2022-09-29T09:41:23;97867.38;;;9.49;80.62
73151;BME280;61354;50.758;6.106;2022-09-29T09:44:17;97867.00;;;9.51;79.30
73151;BME280;61354;50.758;6.106;2022-09-29T09:47:03;97878.13;;;9.54;79.17
73151;BME280;61354;50.758;6.106;2022-09-29T09:49:36;97871.13;;;9.67;79.44
73151;BME280;61354;50.758;6.106;2022-09-29T09:52:11;97876.16;;;10.06;73.43
73151;BME280;61354;50.758;6.106;2022-09-29T09:57:38;97867.91;;;10.13;78.59
73151;BME280;61354;50.758;6.106;2022-09-29T10:00:15;97870.03;;;10.31;77.21
73151;BME280;61354;50.758;6.106;2022-09-29T10:02:53;97872.53;;;10.50;76.98
73151;BME280;61354;50.758;6.106;2022-09-29T10:05:21;97871.78;;;10.60;76.51
73151;BME280;61354;50.758;6.106;2022-09-29T10:07:52;97876.13;;;10.54;77.44
73151;BME280;61354;50.758;6.106;2022-09-29T10:10:23;97878.91;;;10.58;77.23
73151;BME280;61354;50.758;6.106;2022-09-29T10:12:56;97873.00;;;10.66;76.72
73151;BME280;61354;50.758;6.106;2022-09-29T10:15:32;97869.44;;;10.69;75.55
73151;BME280;61354;50.758;6.106;2022-09-29T10:20:46;97877.78;;;10.77;74.99
73151;BME280;61354;50.758;6.106;2022-09-29T10:26:11;97879.47;;;10.92;75.83
73151;BME280;61354;50.758;6.106;2022-09-29T10:28:46;97881.84;;;10.97;74.47
73151;BME280;61354;50.758;6.106;2022-09-29T10:33:57;97885.41;;;10.98;72.66
73151;BME280;61354;50.758;6.106;2022-09-29T10:36:28;97894.97;;;11.04;75.19
73151;BME280;61354;50.758;6.106;2022-09-29T10:38:55;97889.84;;;11.09;75.90
73151;BME280;61354;50.758;6.106;2022-09-29T10:41:21;97897.00;;;11.17;76.65
73151;BME280;61354;50.758;6.106;2022-09-29T10:43:47;97902.16;;;11.19;73.21
73151;BME280;61354;50.758;6.106;2022-09-29T10:46:46;97899.03;;;11.24;72.68
73151;BME280;61354;50.758;6.106;2022-09-29T10:49:24;97908.59;;;11.48;72.84
73151;BME280;61354;50.758;6.106;2022-09-29T10:51:59;97887.19;;;11.63;69.38
73151;BME280;61354;50.758;6.106;2022-09-29T10:54:52;97885.97;;;11.82;70.95
73151;BME280;61354;50.758;6.106;2022-09-29T10:57:46;97895.16;;;12.00;66.99
73151;BME280;61354;50.758;6.106;2022-09-29T11:00:43;97889.19;;;12.09;66.12
73151;BME280;61354;50.758;6.106;2022-09-29T11:06:13;97895.97;;;12.11;67.31
73151;BME280;61354;50.758;6.106;2022-09-29T11:11:28;97895.16;;;12.29;66.87
73151;BME280;61354;50.758;6.106;2022-09-29T11:13:55;97896.75;;;12.15;61.83
73151;BME280;61354;50.758;6.106;2022-09-29T11:16:28;97895.91;;;12.54;64.81
73151;BME280;61354;50.758;6.106;2022-09-29T11:19:08;97902.69;;;12.39;62.01
73151;BME280;61354;50.758;6.106;2022-09-29T11:26:59;97909.44;;;12.49;60.71
73151;BME280;61354;50.758;6.106;2022-09-29T11:36:15;97909.84;;;12.26;63.46
73151;BME280;61354;50.758;6.106;2022-09-29T11:41:32;97912.66;;;12.11;62.93
73151;BME280;61354;50.758;6.106;2022-09-29T11:44:26;97909.84;;;11.90;62.05
73151;BME280;61354;50.758;6.106;2022-09-29T11:52:52;97908.66;;;12.27;62.30
73151;BME280;61354;50.758;6.106;2022-09-29T11:59:05;97911.44;;;12.34;58.42
73151;BME280;61354;50.758;6.106;2022-09-29T12:01:28;97918.19;;;12.47;58.17
73151;BME280;61354;50.758;6.106;2022-09-29T12:04:28;97920.19;;;12.29;58.58
73151;BME280;61354;50.758;6.106;2022-09-29T12:10:06;97914.25;;;12.05;59.32
73151;BME280;61354;50.758;6.106;2022-09-29T12:13:04;97919.81;;;12.12;61.58
73151;BME280;61354;50.758;6.106;2022-09-29T12:18:46;97911.03;;;12.35;62.62
73151;BME280;61354;50.758;6.106;2022-09-29T12:21:15;97920.63;;;12.24;60.01
73151;BME280;61354;50.758;6.106;2022-09-29T12:23:43;97920.59;;;12.20;61.70
73151;BME280;61354;50.758;6.106;2022-09-29T12:26:12;97916.63;;;12.17;62.66
73151;BME280;61354;50.758;6.106;2022-09-29T12:28:44;97919.03;;;12.15;63.42
73151;BME280;61354;50.758;6.106;2022-09-29T12:31:16;97921.38;;;12.10;63.79
73151;BME280;61354;50.758;6.106;2022-09-29T12:34:00;97920.59;;;12.06;64.45
73151;BME280;61354;50.758;6.106;2022-09-29T12:36:37;97922.19;;;12.00;65.16
73151;BME280;61354;50.758;6.106;2022-09-29T12:39:17;97918.22;;;11.93;65.29
73151;BME280;61354;50.758;6.106;2022-09-29T12:41:50;97919.81;;;11.91;64.15
73151;BME280;61354;50.758;6.106;2022-09-29T12:49:54;97918.97;;;11.80;65.54
73151;BME280;61354;50.758;6.106;2022-09-29T12:52:31;97920.94;;;11.76;67.63
73151;BME280;61354;50.758;6.106;2022-09-29T12:55:02;97925.31;;;11.73;65.90
73151;BME280;61354;50.758;6.106;2022-09-29T12:57:36;97925.31;;;11.73;67.14
73151;BME280;61354;50.758;6.106;2022-09-29T13:00:13;97930.06;;;11.73;65.12
73151;BME280;61354;50.758;6.106;2022-09-29T13:27:41;97931.75;;;11.95;65.70
73151;BME280;61354;50.758;6.106;2022-09-29T13:32:47;97923.78;;;12.15;66.07
73151;BME280;61354;50.758;6.106;2022-09-29T13:35:15;97932.53;;;12.13;63.65
73151;BME280;61354;50.758;6.106;2022-09-29T13:38:02;97934.94;;;12.11;63.16
73151;BME280;61354;50.758;6.106;2022-09-29T13:40:29;97946.84;;;12.26;63.57
73151;BME280;61354;50.758;6.106;2022-09-29T13:43:03;97938.09;;;12.21;62.58
73151;BME280;61354;50.758;6.106;2022-09-29T13:48:32;97937.69;;;12.15;62.44
73151;BME280;61354;50.758;6.106;2022-09-29T13:51:22;97946.84;;;12.08;63.41
73151;BME280;61354;50.758;6.106;2022-09-29T13:54:17;97952.41;;;12.05;63.50
73151;BME280;61354;50.758;6.106;2022-09-29T13:56:50;97956.38;;;12.04;63.27
73151;BME280;61354;50.758;6.106;2022-09-29T13:59:45;97953.59;;;12.04;64.36
73151;BME280;61354;50.758;6.106;2022-09-29T14:02:55;97963.53;;;12.05;61.63
73151;BME280;61354;50.758;6.106;2022-09-29T14:13:04;97974.66;;;11.98;64.21
73151;BME280;61354;50.758;6.106;2022-09-29T14:15:39;97971.88;;;12.01;63.92
73151;BME280;61354;50.758;6.106;2022-09-29T14:18:37;97965.13;;;11.95;67.35
73151;BME280;61354;50.758;6.106;2022-09-29T14:21:09;97974.63;;;11.94;67.40
73151;BME280;61354;50.758;6.106;2022-09-29T14:26:48;97980.19;;;11.94;68.57
73151;BME280;61354;50.758;6.106;2022-09-29T14:29:29;97979.81;;;11.92;69.21
73151;BME280;61354;50.758;6.106;2022-09-29T14:31:58;97977.44;;;11.87;70.34
73151;BME280;61354;50.758;6.106;2022-09-29T14:34:28;97983.00;;;11.87;71.02
73151;BME280;61354;50.758;6.106;2022-09-29T14:36:56;97988.16;;;11.88;70.50
73151;BME280;61354;50.758;6.106;2022-09-29T14:39:24;97993.72;;;11.88;69.72
73151;BME280;61354;50.758;6.106;2022-09-29T14:41:50;97993.69;;;11.85;69.91
73151;BME280;61354;50.758;6.106;2022-09-29T14:44:24;97996.09;;;11.83;70.04
73151;BME280;61354;50.758;6.106;2022-09-29T14:50:02;98000.81;;;11.79;70.27
73151;BME280;61354;50.758;6.106;2022-09-29T14:53:01;98002.41;;;11.80;69.94
73151;BME280;61354;50.758;6.106;2022-09-29T15:04:03;98013.53;;;11.80;72.55
73151;BME280;61354;50.758;6.106;2022-09-29T15:06:18;98012.78;;;11.83;72.76
73151;BME280;61354;50.758;6.106;2022-09-29T15:13:54;98018.78;;;11.99;72.63
73151;BME280;61354;50.758;6.106;2022-09-29T15:27:25;98023.13;;;11.89;73.89
73151;BME280;61354;50.758;6.106;2022-09-29T15:29:54;98018.34;;;11.83;74.17
73151;BME280;61354;50.758;6.106;2022-09-29T15:32:21;98030.25;;;11.83;74.29
73151;BME280;61354;50.758;6.106;2022-09-29T15:34:50;98026.25;;;11.81;75.58
73151;BME280;61354;50.758;6.106;2022-09-29T15:37:17;98030.63;;;11.78;75.07
73151;BME280;61354;50.758;6.106;2022-09-29T15:39:52;98027.81;;;11.75;75.23
73151;BME280;61354;50.758;6.106;2022-09-29T15:42:22;98029.03;;;11.74;76.47
73151;BME280;61354;50.758;6.106;2022-09-29T15:47:43;98037.34;;;11.66;75.41
73151;BME280;61354;50.758;6.106;2022-09-29T15:52:42;98041.28;;;11.58;76.16
73151;BME280;61354;50.758;6.106;2022-09-29T15:55:11;98045.63;;;11.56;77.45
73151;BME280;61354;50.758;6.106;2022-09-29T16:05:18;98054.28;;;11.36;79.22
73151;BME280;61354;50.758;6.106;2022-09-29T16:07:51;98056.66;;;11.34;79.63
73151;BME280;61354;50.758;6.106;2022-09-29T16:10:20;98055.44;;;11.28;80.09
73151;BME280;61354;50.758;6.106;2022-09-29T16:13:00;98063.78;;;11.28;79.80
73151;BME280;61354;50.758;6.106;2022-09-29T16:17:51;98071.81;;;11.48;79.72
73151;BME280;61354;50.758;6.106;2022-09-29T16:20:24;98076.16;;;11.49;79.63
73151;BME280;61354;50.758;6.106;2022-09-29T16:22:50;98078.56;;;11.47;79.21
73151;BME280;61354;50.758;6.106;2022-09-29T16:25:28;98085.66;;;11.37;80.39
73151;BME280;61354;50.758;6.106;2022-09-29T16:27:56;98086.03;;;11.35;80.28
73151;BME280;61354;50.758;6.106;2022-09-29T16:33:02;98091.88;;;11.19;81.14
73151;BME280;61354;50.758;6.106;2022-09-29T16:35:39;98092.63;;;11.09;80.00
73151;BME280;61354;50.758;6.106;2022-09-29T16:40:50;98095.00;;;11.04;80.50
73151;BME280;61354;50.758;6.106;2022-09-29T16:45:48;98099.25;;;10.94;82.38